sensor_id;sensor_type;location;lat;lon;timestamp;temperature;humidity
3344;DHT22;1685;53.104;8.228;2023-02-01T00:00:13;5.50;99.90
3344;DHT22;1685;53.104;8.228;2023-02-01T00:05:08;5.50;99.90
3344;DHT22;1685;53.104;8.228;2023-02-01T00:17:25;5.70;99.90
3344;DHT22;1685;53.104;8.228;2023-02-01T00:24:45;5.70;99.90
3344;DHT22;1685;53.104;8.228;2023-02-01T00:27:12;5.60;99.90
3344;DHT22;1685;53.104;8.228;2023-02-01T00:29:43;5.40;99.90
3344;DHT22;1685;53.104;8.228;2023-02-01T00:34:39;5.30;99.90
3344;DHT22;1685;53.104;8.228;2023-02-01T00:42:00;5.50;99.90
3344;DHT22;1685;53.104;8.228;2023-02-01T00:51:54;5.70;99.90
3344;DHT22;1685;53.104;8.228;2023-02-01T00:56:48;5.50;99.90
3344;DHT22;1685;53.104;8.228;2023-02-01T00:59:14;5.60;99.90
3344;DHT22;1685;53.104;8.228;2023-02-01T01:09:05;5.50;99.90
3344;DHT22;1685;53.104;8.228;2023-02-01T01:11:35;5.60;99.90
3344;DHT22;1685;53.104;8.228;2023-02-01T01:14:02;5.60;99.90
3344;DHT22;1685;53.104;8.228;2023-02-01T01:16:31;6.00;99.90
3344;DHT22;1685;53.104;8.228;2023-02-01T01:26:22;5.50;99.90
3344;DHT22;1685;53.104;8.228;2023-02-01T01:31:17;5.60;99.90
3344;DHT22;1685;53.104;8.228;2023-02-01T01:33:48;5.60;99.90
3344;DHT22;1685;53.104;8.228;2023-02-01T01:41:13;5.60;99.90
3344;DHT22;1685;53.104;8.228;2023-02-01T01:43:50;5.50;99.90
3344;DHT22;1685;53.104;8.228;2023-02-01T01:46:19;5.50;99.90
3344;DHT22;1685;53.104;8.228;2023-02-01T01:48:47;5.60;99.90
3344;DHT22;1685;53.104;8.228;2023-02-01T01:51:17;5.60;99.90
3344;DHT22;1685;53.104;8.228;2023-02-01T01:53:49;5.60;99.90
3344;DHT22;1685;53.104;8.228;2023-02-01T01:56:17;5.60;99.90
3344;DHT22;1685;53.104;8.228;2023-02-01T01:58:44;5.70;99.90
3344;DHT22;1685;53.104;8.228;2023-02-01T02:01:12;5.50;99.90
3344;DHT22;1685;53.104;8.228;2023-02-01T02:03:40;5.60;99.90
3344;DHT22;1685;53.104;8.228;2023-02-01T02:06:12;5.70;99.90
3344;DHT22;1685;53.104;8.228;2023-02-01T02:11:12;5.60;99.90
3344;DHT22;1685;53.104;8.228;2023-02-01T02:13:43;5.60;99.90
3344;DHT22;1685;53.104;8.228;2023-02-01T02:16:23;5.70;99.90
3344;DHT22;1685;53.104;8.228;2023-02-01T02:19:02;5.70;99.90
3344;DHT22;1685;53.104;8.228;2023-02-01T02:21:49;5.70;99.90
3344;DHT22;1685;53.104;8.228;2023-02-01T02:24:34;5.60;99.90
3344;DHT22;1685;53.104;8.228;2023-02-01T02:27:14;5.60;99.90
3344;DHT22;1685;53.104;8.228;2023-02-01T02:30:22;5.70;99.90
3344;DHT22;1685;53.104;8.228;2023-02-01T02:35:56;5.60;99.90
3344;DHT22;1685;53.104;8.228;2023-02-01T02:38:30;5.60;99.90
3344;DHT22;1685;53.104;8.228;2023-02-01T02:41:05;5.60;99.90
3344;DHT22;1685;53.104;8.228;2023-02-01T02:43:40;5.40;99.90
3344;DHT22;1685;53.104;8.228;2023-02-01T02:46:33;5.50;99.90
3344;DHT22;1685;53.104;8.228;2023-02-01T02:49:22;5.50;99.90
3344;DHT22;1685;53.104;8.228;2023-02-01T02:51:54;5.50;99.90
3344;DHT22;1685;53.104;8.228;2023-02-01T02:54:43;5.60;99.90
3344;DHT22;1685;53.104;8.228;2023-02-01T02:57:19;5.50;99.90
3344;DHT22;1685;53.104;8.228;2023-02-01T03:00:08;5.50;99.90
3344;DHT22;1685;53.104;8.228;2023-02-01T03:02:53;5.50;99.90
3344;DHT22;1685;53.104;8.228;2023-02-01T03:05:42;5.30;99.90
3344;DHT22;1685;53.104;8.228;2023-02-01T03:08:15;5.50;99.90
3344;DHT22;1685;53.104;8.228;2023-02-01T03:10:48;5.40;99.90
3344;DHT22;1685;53.104;8.228;2023-02-01T03:13:24;5.30;99.90
3344;DHT22;1685;53.104;8.228;2023-02-01T03:15:57;5.30;99.90
3344;DHT22;1685;53.104;8.228;2023-02-01T03:18:31;5.20;99.90
3344;DHT22;1685;53.104;8.228;2023-02-01T03:21:00;5.20;99.90
3344;DHT22;1685;53.104;8.228;2023-02-01T03:23:33;5.10;99.90
3344;DHT22;1685;53.104;8.228;2023-02-01T03:26:04;5.10;99.90
3344;DHT22;1685;53.104;8.228;2023-02-01T03:28:33;5.10;99.90
3344;DHT22;1685;53.104;8.228;2023-02-01T03:31:01;5.20;99.90
3344;DHT22;1685;53.104;8.228;2023-02-01T03:33:29;5.00;99.90
3344;DHT22;1685;53.104;8.228;2023-02-01T03:36:05;4.90;99.90
3344;DHT22;1685;53.104;8.228;2023-02-01T03:38:39;5.10;99.90
3344;DHT22;1685;53.104;8.228;2023-02-01T03:41:11;4.90;99.90
3344;DHT22;1685;53.104;8.228;2023-02-01T03:43:45;5.00;99.90
3344;DHT22;1685;53.104;8.228;2023-02-01T03:46:18;4.90;99.90
3344;DHT22;1685;53.104;8.228;2023-02-01T03:48:47;5.00;99.90
3344;DHT22;1685;53.104;8.228;2023-02-01T03:51:15;4.90;99.90
3344;DHT22;1685;53.104;8.228;2023-02-01T03:53:46;4.90;99.90
3344;DHT22;1685;53.104;8.228;2023-02-01T03:56:15;4.90;99.90
3344;DHT22;1685;53.104;8.228;2023-02-01T04:08:46;4.80;99.90
3344;DHT22;1685;53.104;8.228;2023-02-01T04:21:01;4.90;99.90
3344;DHT22;1685;53.104;8.228;2023-02-01T04:26:00;4.60;99.90
3344;DHT22;1685;53.104;8.228;2023-02-01T04:30:54;5.10;99.90
3344;DHT22;1685;53.104;8.228;2023-02-01T04:38:15;5.00;99.90
3344;DHT22;1685;53.104;8.228;2023-02-01T04:40:42;4.90;99.90
3344;DHT22;1685;53.104;8.228;2023-02-01T04:43:10;5.00;99.90
3344;DHT22;1685;53.104;8.228;2023-02-01T04:45:37;4.90;99.90
3344;DHT22;1685;53.104;8.228;2023-02-01T04:48:04;5.00;99.90
3344;DHT22;1685;53.104;8.228;2023-02-01T04:55:25;5.00;99.90
3344;DHT22;1685;53.104;8.228;2023-02-01T04:57:52;5.10;99.90
3344;DHT22;1685;53.104;8.228;2023-02-01T05:00:20;5.00;99.90
3344;DHT22;1685;53.104;8.228;2023-02-01T05:10:09;4.90;99.90
3344;DHT22;1685;53.104;8.228;2023-02-01T05:12:36;5.00;99.90
3344;DHT22;1685;53.104;8.228;2023-02-01T05:15:21;5.20;99.90
3344;DHT22;1685;53.104;8.228;2023-02-01T05:22:42;4.90;99.90
3344;DHT22;1685;53.104;8.228;2023-02-01T05:25:09;4.80;99.90
3344;DHT22;1685;53.104;8.228;2023-02-01T05:27:36;4.70;99.90
3344;DHT22;1685;53.104;8.228;2023-02-01T05:30:03;4.90;99.90
3344;DHT22;1685;53.104;8.228;2023-02-01T05:32:31;4.90;99.90
3344;DHT22;1685;53.104;8.228;2023-02-01T05:34:58;4.80;99.90
3344;DHT22;1685;53.104;8.228;2023-02-01T05:42:19;4.80;99.90
3344;DHT22;1685;53.104;8.228;2023-02-01T05:49:41;4.90;99.90
3344;DHT22;1685;53.104;8.228;2023-02-01T05:57:02;5.00;99.90
3344;DHT22;1685;53.104;8.228;2023-02-01T05:59:29;5.10;99.90
3344;DHT22;1685;53.104;8.228;2023-02-01T06:01:56;5.20;99.90
3344;DHT22;1685;53.104;8.228;2023-02-01T06:04:22;5.10;99.90
3344;DHT22;1685;53.104;8.228;2023-02-01T06:06:50;5.20;99.90
3344;DHT22;1685;53.104;8.228;2023-02-01T06:09:17;5.10;99.90
3344;DHT22;1685;53.104;8.228;2023-02-01T06:14:11;5.00;99.90
3344;DHT22;1685;53.104;8.228;2023-02-01T06:24:00;4.70;99.90
3344;DHT22;1685;53.104;8.228;2023-02-01T06:31:22;4.70;99.90
3344;DHT22;1685;53.104;8.228;2023-02-01T06:33:49;4.60;99.90
3344;DHT22;1685;53.104;8.228;2023-02-01T06:38:44;5.00;99.90
3344;DHT22;1685;53.104;8.228;2023-02-01T06:41:12;4.90;99.90
3344;DHT22;1685;53.104;8.228;2023-02-01T06:46:08;4.90;99.90
3344;DHT22;1685;53.104;8.228;2023-02-01T06:55:58;5.10;99.90
3344;DHT22;1685;53.104;8.228;2023-02-01T06:58:30;5.10;99.90
3344;DHT22;1685;53.104;8.228;2023-02-01T07:05:56;5.10;99.90
3344;DHT22;1685;53.104;8.228;2023-02-01T07:15:47;5.20;99.90
3344;DHT22;1685;53.104;8.228;2023-02-01T07:23:10;5.10;99.90
3344;DHT22;1685;53.104;8.228;2023-02-01T07:32:59;5.20;99.90
3344;DHT22;1685;53.104;8.228;2023-02-01T07:50:16;5.10;99.90
3344;DHT22;1685;53.104;8.228;2023-02-01T08:00:05;5.10;99.90
3344;DHT22;1685;53.104;8.228;2023-02-01T08:02:49;5.00;99.90
3344;DHT22;1685;53.104;8.228;2023-02-01T08:05:17;5.10;99.90
3344;DHT22;1685;53.104;8.228;2023-02-01T08:07:48;5.10;99.90
3344;DHT22;1685;53.104;8.228;2023-02-01T08:10:15;5.20;99.90
3344;DHT22;1685;53.104;8.228;2023-02-01T08:12:46;5.10;99.90
3344;DHT22;1685;53.104;8.228;2023-02-01T08:17:47;5.30;99.90
3344;DHT22;1685;53.104;8.228;2023-02-01T08:22:43;5.40;99.90
3344;DHT22;1685;53.104;8.228;2023-02-01T08:27:38;5.40;99.90
3344;DHT22;1685;53.104;8.228;2023-02-01T08:30:06;5.30;99.90
3344;DHT22;1685;53.104;8.228;2023-02-01T08:39:56;5.50;99.90
3344;DHT22;1685;53.104;8.228;2023-02-01T08:45:09;5.50;99.90
3344;DHT22;1685;53.104;8.228;2023-02-01T08:50:03;5.60;99.90
3344;DHT22;1685;53.104;8.228;2023-02-01T08:54:58;5.60;99.90
3344;DHT22;1685;53.104;8.228;2023-02-01T09:12:10;5.80;99.90
3344;DHT22;1685;53.104;8.228;2023-02-01T09:29:21;5.80;99.90
3344;DHT22;1685;53.104;8.228;2023-02-01T09:41:45;5.90;99.90
3344;DHT22;1685;53.104;8.228;2023-02-01T09:44:26;6.00;99.90
3344;DHT22;1685;53.104;8.228;2023-02-01T09:49:29;6.00;99.90
3344;DHT22;1685;53.104;8.228;2023-02-01T09:54:26;6.00;99.90
3344;DHT22;1685;53.104;8.228;2023-02-01T09:56:56;6.00;99.90
3344;DHT22;1685;53.104;8.228;2023-02-01T09:59:37;6.00;99.90
3344;DHT22;1685;53.104;8.228;2023-02-01T10:02:11;6.50;99.90
3344;DHT22;1685;53.104;8.228;2023-02-01T10:07:13;6.10;99.90
3344;DHT22;1685;53.104;8.228;2023-02-01T10:09:52;6.00;99.90
3344;DHT22;1685;53.104;8.228;2023-02-01T10:15:27;6.00;99.90
3344;DHT22;1685;53.104;8.228;2023-02-01T10:18:14;6.00;99.90
3344;DHT22;1685;53.104;8.228;2023-02-01T10:20:55;5.70;99.90
3344;DHT22;1685;53.104;8.228;2023-02-01T10:23:44;5.80;99.90
3344;DHT22;1685;53.104;8.228;2023-02-01T10:26:18;5.80;99.90
3344;DHT22;1685;53.104;8.228;2023-02-01T10:28:49;5.80;99.90
3344;DHT22;1685;53.104;8.228;2023-02-01T10:31:19;5.80;99.90
3344;DHT22;1685;53.104;8.228;2023-02-01T10:33:49;5.50;99.90
3344;DHT22;1685;53.104;8.228;2023-02-01T10:36:21;5.80;99.90
3344;DHT22;1685;53.104;8.228;2023-02-01T10:38:49;5.90;99.90
3344;DHT22;1685;53.104;8.228;2023-02-01T10:41:19;6.00;99.90
3344;DHT22;1685;53.104;8.228;2023-02-01T10:43:54;5.90;99.90
3344;DHT22;1685;53.104;8.228;2023-02-01T10:46:24;5.80;99.90
3344;DHT22;1685;53.104;8.228;2023-02-01T10:48:53;6.00;99.90
3344;DHT22;1685;53.104;8.228;2023-02-01T10:51:23;6.10;99.90
3344;DHT22;1685;53.104;8.228;2023-02-01T10:53:55;5.60;99.90
3344;DHT22;1685;53.104;8.228;2023-02-01T10:56:24;5.70;99.90
3344;DHT22;1685;53.104;8.228;2023-02-01T11:01:20;5.70;99.90
3344;DHT22;1685;53.104;8.228;2023-02-01T11:03:54;5.60;99.90
3344;DHT22;1685;53.104;8.228;2023-02-01T11:06:27;5.50;99.90
3344;DHT22;1685;53.104;8.228;2023-02-01T11:08:56;5.70;99.90
3344;DHT22;1685;53.104;8.228;2023-02-01T11:11:24;5.40;99.90
3344;DHT22;1685;53.104;8.228;2023-02-01T11:13:54;5.80;99.90
3344;DHT22;1685;53.104;8.228;2023-02-01T11:16:21;5.40;99.90
3344;DHT22;1685;53.104;8.228;2023-02-01T11:18:54;5.20;99.90
3344;DHT22;1685;53.104;8.228;2023-02-01T11:21:21;5.10;99.90
3344;DHT22;1685;53.104;8.228;2023-02-01T11:26:21;5.20;99.90
3344;DHT22;1685;53.104;8.228;2023-02-01T11:28:53;5.00;99.90
3344;DHT22;1685;53.104;8.228;2023-02-01T11:31:20;5.10;99.90
3344;DHT22;1685;53.104;8.228;2023-02-01T11:33:51;5.10;99.90
3344;DHT22;1685;53.104;8.228;2023-02-01T11:36:22;5.60;99.90
3344;DHT22;1685;53.104;8.228;2023-02-01T11:38:53;4.90;99.90
3344;DHT22;1685;53.104;8.228;2023-02-01T11:41:23;5.20;99.90
3344;DHT22;1685;53.104;8.228;2023-02-01T11:43:53;5.30;99.90
3344;DHT22;1685;53.104;8.228;2023-02-01T11:46:23;4.90;99.90
3344;DHT22;1685;53.104;8.228;2023-02-01T11:48:52;5.30;99.90
3344;DHT22;1685;53.104;8.228;2023-02-01T11:51:36;5.20;99.90
3344;DHT22;1685;53.104;8.228;2023-02-01T11:54:18;5.30;99.90
3344;DHT22;1685;53.104;8.228;2023-02-01T11:56:55;5.40;99.90
3344;DHT22;1685;53.104;8.228;2023-02-01T12:02:36;5.10;99.90
3344;DHT22;1685;53.104;8.228;2023-02-01T12:05:19;5.00;99.90
3344;DHT22;1685;53.104;8.228;2023-02-01T12:08:01;4.50;99.90
3344;DHT22;1685;53.104;8.228;2023-02-01T12:10:40;4.60;99.90
3344;DHT22;1685;53.104;8.228;2023-02-01T12:13:23;4.60;99.90
3344;DHT22;1685;53.104;8.228;2023-02-01T12:16:00;4.50;99.90
3344;DHT22;1685;53.104;8.228;2023-02-01T12:18:42;4.30;99.90
3344;DHT22;1685;53.104;8.228;2023-02-01T12:21:26;4.40;99.90
3344;DHT22;1685;53.104;8.228;2023-02-01T12:24:11;4.20;99.90
3344;DHT22;1685;53.104;8.228;2023-02-01T12:26:50;4.20;99.90
3344;DHT22;1685;53.104;8.228;2023-02-01T12:29:36;4.20;99.90
3344;DHT22;1685;53.104;8.228;2023-02-01T12:32:16;4.20;99.90
3344;DHT22;1685;53.104;8.228;2023-02-01T12:35:17;4.30;99.90
3344;DHT22;1685;53.104;8.228;2023-02-01T12:38:02;4.30;99.90
3344;DHT22;1685;53.104;8.228;2023-02-01T12:40:54;4.30;99.90
3344;DHT22;1685;53.104;8.228;2023-02-01T12:43:29;4.50;99.90
3344;DHT22;1685;53.104;8.228;2023-02-01T12:46:02;4.50;99.90
3344;DHT22;1685;53.104;8.228;2023-02-01T12:48:32;4.40;99.90
3344;DHT22;1685;53.104;8.228;2023-02-01T12:51:03;4.60;99.90
3344;DHT22;1685;53.104;8.228;2023-02-01T12:53:42;4.30;99.90
3344;DHT22;1685;53.104;8.228;2023-02-01T12:56:15;4.10;99.90
3344;DHT22;1685;53.104;8.228;2023-02-01T12:58:45;4.20;99.90
3344;DHT22;1685;53.104;8.228;2023-02-01T13:01:18;4.10;99.90
3344;DHT22;1685;53.104;8.228;2023-02-01T13:03:54;4.20;99.90
3344;DHT22;1685;53.104;8.228;2023-02-01T13:06:26;4.10;99.90
3344;DHT22;1685;53.104;8.228;2023-02-01T13:08:58;3.90;99.90
3344;DHT22;1685;53.104;8.228;2023-02-01T13:11:31;4.20;99.90
3344;DHT22;1685;53.104;8.228;2023-02-01T13:14:02;4.30;99.90
3344;DHT22;1685;53.104;8.228;2023-02-01T13:16:32;4.20;99.90
3344;DHT22;1685;53.104;8.228;2023-02-01T13:19:05;4.30;99.90
3344;DHT22;1685;53.104;8.228;2023-02-01T13:21:39;4.30;99.90
3344;DHT22;1685;53.104;8.228;2023-02-01T13:24:21;4.30;99.90
3344;DHT22;1685;53.104;8.228;2023-02-01T13:26:54;4.20;99.90
3344;DHT22;1685;53.104;8.228;2023-02-01T13:29:23;4.30;99.90
3344;DHT22;1685;53.104;8.228;2023-02-01T13:35:08;4.30;99.90
3344;DHT22;1685;53.104;8.228;2023-02-01T13:37:59;4.40;99.90
3344;DHT22;1685;53.104;8.228;2023-02-01T13:40:37;4.60;99.90
3344;DHT22;1685;53.104;8.228;2023-02-01T13:43:12;4.50;99.90
3344;DHT22;1685;53.104;8.228;2023-02-01T13:45:46;4.70;99.90
3344;DHT22;1685;53.104;8.228;2023-02-01T13:48:21;4.90;99.90
3344;DHT22;1685;53.104;8.228;2023-02-01T13:50:52;4.60;99.90
3344;DHT22;1685;53.104;8.228;2023-02-01T13:53:23;4.80;99.90
3344;DHT22;1685;53.104;8.228;2023-02-01T13:55:56;5.00;99.90
3344;DHT22;1685;53.104;8.228;2023-02-01T13:58:31;5.00;99.90
3344;DHT22;1685;53.104;8.228;2023-02-01T14:01:33;5.20;99.90
3344;DHT22;1685;53.104;8.228;2023-02-01T14:04:03;5.20;99.90
3344;DHT22;1685;53.104;8.228;2023-02-01T14:06:40;5.20;99.90
3344;DHT22;1685;53.104;8.228;2023-02-01T14:09:18;5.40;99.90
3344;DHT22;1685;53.104;8.228;2023-02-01T14:11:47;5.40;99.90
3344;DHT22;1685;53.104;8.228;2023-02-01T14:14:41;5.60;99.90
3344;DHT22;1685;53.104;8.228;2023-02-01T14:17:35;5.50;99.90
3344;DHT22;1685;53.104;8.228;2023-02-01T14:23:28;5.60;99.90
3344;DHT22;1685;53.104;8.228;2023-02-01T14:26:20;5.80;99.90
3344;DHT22;1685;53.104;8.228;2023-02-01T14:28:59;6.00;99.90
3344;DHT22;1685;53.104;8.228;2023-02-01T14:31:42;6.20;99.90
3344;DHT22;1685;53.104;8.228;2023-02-01T14:34:15;6.40;99.90
3344;DHT22;1685;53.104;8.228;2023-02-01T14:36:45;6.30;99.90
3344;DHT22;1685;53.104;8.228;2023-02-01T14:39:22;6.00;99.90
3344;DHT22;1685;53.104;8.228;2023-02-01T14:41:54;6.30;99.90
3344;DHT22;1685;53.104;8.228;2023-02-01T14:44:33;6.20;99.90
3344;DHT22;1685;53.104;8.228;2023-02-01T14:47:07;6.30;99.90
3344;DHT22;1685;53.104;8.228;2023-02-01T14:49:38;6.30;99.90
3344;DHT22;1685;53.104;8.228;2023-02-01T14:52:11;6.30;99.90
3344;DHT22;1685;53.104;8.228;2023-02-01T14:54:39;6.20;99.90
3344;DHT22;1685;53.104;8.228;2023-02-01T14:57:14;6.20;99.90
3344;DHT22;1685;53.104;8.228;2023-02-01T14:59:42;6.20;99.90
3344;DHT22;1685;53.104;8.228;2023-02-01T15:02:20;6.20;99.90
3344;DHT22;1685;53.104;8.228;2023-02-01T15:04:54;6.70;99.90
3344;DHT22;1685;53.104;8.228;2023-02-01T15:07:22;6.30;99.90
3344;DHT22;1685;53.104;8.228;2023-02-01T15:09:50;6.30;99.90
3344;DHT22;1685;53.104;8.228;2023-02-01T15:12:22;6.40;99.90
3344;DHT22;1685;53.104;8.228;2023-02-01T15:15:09;6.40;99.90
3344;DHT22;1685;53.104;8.228;2023-02-01T15:17:38;6.60;99.90
3344;DHT22;1685;53.104;8.228;2023-02-01T15:20:14;6.80;99.90
3344;DHT22;1685;53.104;8.228;2023-02-01T15:22:42;6.90;99.90
3344;DHT22;1685;53.104;8.228;2023-02-01T15:25:19;6.60;99.90
3344;DHT22;1685;53.104;8.228;2023-02-01T15:30:18;6.70;99.90
3344;DHT22;1685;53.104;8.228;2023-02-01T15:32:47;6.70;99.90
3344;DHT22;1685;53.104;8.228;2023-02-01T15:35:38;6.50;99.90
3344;DHT22;1685;53.104;8.228;2023-02-01T15:38:35;6.50;99.90
3344;DHT22;1685;53.104;8.228;2023-02-01T15:41:05;6.40;99.90
3344;DHT22;1685;53.104;8.228;2023-02-01T15:43:35;6.40;99.90
3344;DHT22;1685;53.104;8.228;2023-02-01T15:46:09;6.50;99.90
3344;DHT22;1685;53.104;8.228;2023-02-01T15:48:41;6.30;99.90
3344;DHT22;1685;53.104;8.228;2023-02-01T15:51:14;6.40;99.90
3344;DHT22;1685;53.104;8.228;2023-02-01T15:53:46;6.30;99.90
3344;DHT22;1685;53.104;8.228;2023-02-01T15:56:13;6.40;99.90
3344;DHT22;1685;53.104;8.228;2023-02-01T15:58:42;6.30;99.90
3344;DHT22;1685;53.104;8.228;2023-02-01T16:01:11;6.30;99.90
3344;DHT22;1685;53.104;8.228;2023-02-01T16:03:42;6.40;99.90
3344;DHT22;1685;53.104;8.228;2023-02-01T16:06:11;6.30;99.90
3344;DHT22;1685;53.104;8.228;2023-02-01T16:08:49;6.40;99.90
3344;DHT22;1685;53.104;8.228;2023-02-01T16:11:24;6.20;99.90
3344;DHT22;1685;53.104;8.228;2023-02-01T16:13:52;6.20;99.90
3344;DHT22;1685;53.104;8.228;2023-02-01T16:18:48;6.10;99.90
3344;DHT22;1685;53.104;8.228;2023-02-01T16:28:36;5.80;99.90
3344;DHT22;1685;53.104;8.228;2023-02-01T16:31:04;5.70;99.90
3344;DHT22;1685;53.104;8.228;2023-02-01T16:33:33;5.80;99.90
3344;DHT22;1685;53.104;8.228;2023-02-01T16:36:01;5.90;99.90
3344;DHT22;1685;53.104;8.228;2023-02-01T16:38:29;6.10;99.90
3344;DHT22;1685;53.104;8.228;2023-02-01T16:43:25;6.00;99.90
3344;DHT22;1685;53.104;8.228;2023-02-01T16:45:54;6.00;99.90
3344;DHT22;1685;53.104;8.228;2023-02-01T16:48:25;5.90;99.90
3344;DHT22;1685;53.104;8.228;2023-02-01T16:50:54;6.00;99.90
3344;DHT22;1685;53.104;8.228;2023-02-01T16:53:23;5.90;99.90
3344;DHT22;1685;53.104;8.228;2023-02-01T16:58:18;5.80;99.90
3344;DHT22;1685;53.104;8.228;2023-02-01T17:00:46;5.80;99.90
3344;DHT22;1685;53.104;8.228;2023-02-01T17:03:13;5.80;99.90
3344;DHT22;1685;53.104;8.228;2023-02-01T17:05:43;5.70;99.90
3344;DHT22;1685;53.104;8.228;2023-02-01T17:08:13;5.80;99.90
3344;DHT22;1685;53.104;8.228;2023-02-01T17:10:42;5.70;99.90
3344;DHT22;1685;53.104;8.228;2023-02-01T17:13:13;6.10;99.90
3344;DHT22;1685;53.104;8.228;2023-02-01T17:15:44;5.70;99.90
3344;DHT22;1685;53.104;8.228;2023-02-01T17:18:15;5.70;99.90
3344;DHT22;1685;53.104;8.228;2023-02-01T17:25:39;5.50;99.90
3344;DHT22;1685;53.104;8.228;2023-02-01T17:28:09;5.80;99.90
3344;DHT22;1685;53.104;8.228;2023-02-01T17:30:37;5.80;99.90
3344;DHT22;1685;53.104;8.228;2023-02-01T17:33:20;5.90;99.90
3344;DHT22;1685;53.104;8.228;2023-02-01T17:35:47;5.70;99.90
3344;DHT22;1685;53.104;8.228;2023-02-01T17:43:19;6.00;99.90
3344;DHT22;1685;53.104;8.228;2023-02-01T17:45:49;6.00;99.90
3344;DHT22;1685;53.104;8.228;2023-02-01T17:48:18;5.90;99.90
3344;DHT22;1685;53.104;8.228;2023-02-01T17:50:46;5.90;99.90
3344;DHT22;1685;53.104;8.228;2023-02-01T17:53:14;5.80;99.90
3344;DHT22;1685;53.104;8.228;2023-02-01T17:55:45;5.90;99.90
3344;DHT22;1685;53.104;8.228;2023-02-01T17:58:13;5.80;99.90
3344;DHT22;1685;53.104;8.228;2023-02-01T18:00:42;5.80;99.90
3344;DHT22;1685;53.104;8.228;2023-02-01T18:03:18;6.00;99.90
3344;DHT22;1685;53.104;8.228;2023-02-01T18:08:15;5.90;99.90
3344;DHT22;1685;53.104;8.228;2023-02-01T18:13:10;5.90;99.90
3344;DHT22;1685;53.104;8.228;2023-02-01T18:18:06;6.00;99.90
3344;DHT22;1685;53.104;8.228;2023-02-01T18:25:29;5.90;99.90
3344;DHT22;1685;53.104;8.228;2023-02-01T18:28:01;5.80;99.90
3344;DHT22;1685;53.104;8.228;2023-02-01T18:30:30;5.80;99.90
3344;DHT22;1685;53.104;8.228;2023-02-01T18:32:57;5.90;99.90
3344;DHT22;1685;53.104;8.228;2023-02-01T18:35:27;5.90;99.90
3344;DHT22;1685;53.104;8.228;2023-02-01T18:40:22;5.90;99.90
3344;DHT22;1685;53.104;8.228;2023-02-01T18:42:50;6.10;99.90
3344;DHT22;1685;53.104;8.228;2023-02-01T18:45:28;6.00;99.90
3344;DHT22;1685;53.104;8.228;2023-02-01T18:47:55;5.80;99.90
3344;DHT22;1685;53.104;8.228;2023-02-01T18:50:23;5.90;99.90
3344;DHT22;1685;53.104;8.228;2023-02-01T18:52:53;5.80;99.90
3344;DHT22;1685;53.104;8.228;2023-02-01T18:55:20;5.90;99.90
3344;DHT22;1685;53.104;8.228;2023-02-01T18:57:47;5.90;99.90
3344;DHT22;1685;53.104;8.228;2023-02-01T19:00:14;5.90;99.90
3344;DHT22;1685;53.104;8.228;2023-02-01T19:02:41;5.80;99.90
3344;DHT22;1685;53.104;8.228;2023-02-01T19:05:10;5.90;99.90
3344;DHT22;1685;53.104;8.228;2023-02-01T19:07:38;5.90;99.90
3344;DHT22;1685;53.104;8.228;2023-02-01T19:10:09;5.80;99.90
3344;DHT22;1685;53.104;8.228;2023-02-01T19:15:06;5.80;99.90
3344;DHT22;1685;53.104;8.228;2023-02-01T19:17:33;5.80;99.90
3344;DHT22;1685;53.104;8.228;2023-02-01T19:20:00;5.50;99.90
3344;DHT22;1685;53.104;8.228;2023-02-01T19:24:56;5.60;99.90
3344;DHT22;1685;53.104;8.228;2023-02-01T19:27:24;5.60;99.90
3344;DHT22;1685;53.104;8.228;2023-02-01T19:29:51;5.50;99.90
3344;DHT22;1685;53.104;8.228;2023-02-01T19:32:18;5.50;99.90
3344;DHT22;1685;53.104;8.228;2023-02-01T19:44:35;5.40;99.90
3344;DHT22;1685;53.104;8.228;2023-02-01T19:56:50;5.20;99.90
3344;DHT22;1685;53.104;8.228;2023-02-01T20:01:46;5.20;99.90
3344;DHT22;1685;53.104;8.228;2023-02-01T20:04:14;5.20;99.90
3344;DHT22;1685;53.104;8.228;2023-02-01T20:06:43;5.20;99.90
3344;DHT22;1685;53.104;8.228;2023-02-01T20:09:15;5.20;99.90
3344;DHT22;1685;53.104;8.228;2023-02-01T20:11:41;5.20;99.90
3344;DHT22;1685;53.104;8.228;2023-02-01T20:16:36;5.30;99.90
3344;DHT22;1685;53.104;8.228;2023-02-01T20:19:04;5.50;99.90
3344;DHT22;1685;53.104;8.228;2023-02-01T20:21:31;5.40;99.90
3344;DHT22;1685;53.104;8.228;2023-02-01T20:28:53;5.50;99.90
3344;DHT22;1685;53.104;8.228;2023-02-01T20:33:49;5.50;99.90
3344;DHT22;1685;53.104;8.228;2023-02-01T20:36:17;5.40;99.90
3344;DHT22;1685;53.104;8.228;2023-02-01T20:38:44;5.40;99.90
3344;DHT22;1685;53.104;8.228;2023-02-01T20:43:37;5.40;99.90
3344;DHT22;1685;53.104;8.228;2023-02-01T20:46:04;5.50;99.90
3344;DHT22;1685;53.104;8.228;2023-02-01T20:51:00;5.40;99.90
3344;DHT22;1685;53.104;8.228;2023-02-01T20:53:28;5.50;99.90
3344;DHT22;1685;53.104;8.228;2023-02-01T20:55:56;5.60;99.90
3344;DHT22;1685;53.104;8.228;2023-02-01T21:03:18;5.60;99.90
3344;DHT22;1685;53.104;8.228;2023-02-01T21:05:46;5.70;99.90
3344;DHT22;1685;53.104;8.228;2023-02-01T21:10:42;5.50;99.90
3344;DHT22;1685;53.104;8.228;2023-02-01T21:18:05;5.50;99.90
3344;DHT22;1685;53.104;8.228;2023-02-01T21:27:56;5.40;99.90
3344;DHT22;1685;53.104;8.228;2023-02-01T21:45:12;5.40;99.90
3344;DHT22;1685;53.104;8.228;2023-02-01T21:50:08;5.40;99.90
3344;DHT22;1685;53.104;8.228;2023-02-01T22:02:27;5.50;99.90
3344;DHT22;1685;53.104;8.228;2023-02-01T22:19:40;5.60;99.90
3344;DHT22;1685;53.104;8.228;2023-02-01T22:36:55;5.70;99.90
3344;DHT22;1685;53.104;8.228;2023-02-01T22:54:07;5.70;99.90
3344;DHT22;1685;53.104;8.228;2023-02-01T22:56:38;5.80;99.90
3344;DHT22;1685;53.104;8.228;2023-02-01T22:59:06;5.80;99.90
3344;DHT22;1685;53.104;8.228;2023-02-01T23:04:03;5.80;99.90
3344;DHT22;1685;53.104;8.228;2023-02-01T23:09:01;5.80;99.90
3344;DHT22;1685;53.104;8.228;2023-02-01T23:11:29;5.80;99.90
3344;DHT22;1685;53.104;8.228;2023-02-01T23:21:19;5.70;99.90
3344;DHT22;1685;53.104;8.228;2023-02-01T23:28:42;5.70;99.90
3344;DHT22;1685;53.104;8.228;2023-02-01T23:31:10;5.70;99.90
3344;DHT22;1685;53.104;8.228;2023-02-01T23:33:38;5.70;99.90
3344;DHT22;1685;53.104;8.228;2023-02-01T23:36:08;5.70;99.90
3344;DHT22;1685;53.104;8.228;2023-02-01T23:41:04;5.70;99.90
3344;DHT22;1685;53.104;8.228;2023-02-01T23:46:17;5.70;99.90
3344;DHT22;1685;53.104;8.228;2023-02-01T23:48:45;5.70;99.90
